createdAt,value
2018-09-21T00:00:59.175Z,21.10
2018-09-21T00:03:26.525Z,20.90
2018-09-21T00:05:53.904Z,20.90
2018-09-21T00:08:21.300Z,20.90
2018-09-21T00:10:48.819Z,20.80
2018-09-21T00:13:16.203Z,20.90
2018-09-21T00:15:43.650Z,21.00
2018-09-21T00:18:11.108Z,20.90
2018-09-21T00:20:38.561Z,21.10
2018-09-21T00:23:06.055Z,21.10
2018-09-21T00:25:33.556Z,21.20
2018-09-21T00:28:01.005Z,21.20
2018-09-21T00:30:28.490Z,21.10
2018-09-21T00:32:55.845Z,21.10
2018-09-21T00:35:23.247Z,21.10
2018-09-21T00:37:50.674Z,21.00
2018-09-21T00:40:18.245Z,20.90
2018-09-21T00:42:45.835Z,20.90
2018-09-21T00:45:13.228Z,20.90
2018-09-21T00:47:40.627Z,20.90
2018-09-21T00:50:07.976Z,20.90
2018-09-21T00:52:35.327Z,21.00
2018-09-21T00:55:02.946Z,21.00
2018-09-21T00:57:30.403Z,21.00
2018-09-21T00:59:57.971Z,20.80
2018-09-21T01:02:25.381Z,20.90
2018-09-21T01:04:52.791Z,20.80
2018-09-21T01:07:20.224Z,20.70
2018-09-21T01:09:47.681Z,20.70
2018-09-21T01:12:15.091Z,20.70
2018-09-21T01:14:42.553Z,20.60
2018-09-21T01:17:10.026Z,20.60
2018-09-21T01:19:37.522Z,20.60
2018-09-21T01:22:04.996Z,20.70
2018-09-21T01:24:32.555Z,20.70
2018-09-21T01:26:59.955Z,20.70
2018-09-21T01:29:27.443Z,20.70
2018-09-21T01:31:55.006Z,20.70
2018-09-21T01:34:22.493Z,20.60
2018-09-21T01:36:49.920Z,20.50
2018-09-21T01:39:17.379Z,20.40
2018-09-21T01:41:44.801Z,20.40
2018-09-21T01:44:12.294Z,20.30
2018-09-21T01:46:39.757Z,20.40
2018-09-21T01:49:07.495Z,20.40
2018-09-21T01:51:34.873Z,20.40
2018-09-21T01:54:02.258Z,20.40
2018-09-21T01:56:29.641Z,20.40
2018-09-21T01:58:57.035Z,20.40
2018-09-21T02:01:24.591Z,20.40
2018-09-21T02:03:52.030Z,20.40
2018-09-21T02:06:19.488Z,20.50
2018-09-21T02:08:46.958Z,20.40
2018-09-21T02:11:14.461Z,20.30
2018-09-21T02:13:41.877Z,20.30
2018-09-21T02:16:09.368Z,20.20
2018-09-21T02:18:36.867Z,20.20
2018-09-21T02:21:04.311Z,20.20
2018-09-21T02:23:31.784Z,20.30
2018-09-21T02:25:59.372Z,20.40
2018-09-21T02:28:26.829Z,20.40
2018-09-21T02:30:54.346Z,20.40
2018-09-21T02:33:21.680Z,20.40
2018-09-21T02:35:49.067Z,20.40
2018-09-21T02:38:16.393Z,20.30
2018-09-21T02:40:43.775Z,20.20
2018-09-21T02:43:11.130Z,20.20
2018-09-21T02:45:38.486Z,20.10
2018-09-21T02:48:06.072Z,20.10
2018-09-21T02:50:33.455Z,20.10
2018-09-21T02:53:00.913Z,20.10
2018-09-21T02:55:28.339Z,20.10
2018-09-21T02:57:55.714Z,20.00
2018-09-21T03:00:23.254Z,20.00
2018-09-21T03:02:50.665Z,20.00
2018-09-21T03:05:18.172Z,20.00
2018-09-21T03:07:45.661Z,19.90
2018-09-21T03:10:13.011Z,19.90
2018-09-21T03:12:40.448Z,19.80
2018-09-21T03:15:07.853Z,19.60
2018-09-21T03:17:35.162Z,19.60
2018-09-21T03:20:02.634Z,19.70
2018-09-21T03:22:30.086Z,19.70
2018-09-21T03:24:57.481Z,19.70
2018-09-21T03:27:24.868Z,19.70
2018-09-21T03:29:52.403Z,19.60
2018-09-21T03:32:19.808Z,19.60
2018-09-21T03:34:47.234Z,19.70
2018-09-21T03:37:14.716Z,19.70
2018-09-21T03:39:42.145Z,19.70
2018-09-21T03:42:09.619Z,19.80
2018-09-21T03:44:37.068Z,19.80
2018-09-21T03:47:04.675Z,19.80
2018-09-21T03:49:32.105Z,19.80
2018-09-21T03:51:59.596Z,19.80
2018-09-21T03:54:27.032Z,19.80
2018-09-21T03:56:54.529Z,19.80
2018-09-21T03:59:22.002Z,19.60
2018-09-21T04:01:49.487Z,19.60
2018-09-21T04:04:16.945Z,19.60
2018-09-21T04:06:44.373Z,19.40
2018-09-21T04:09:11.800Z,19.40
2018-09-21T04:11:39.321Z,19.50
2018-09-21T04:14:06.976Z,19.60
2018-09-21T04:16:34.382Z,19.60
2018-09-21T04:19:01.801Z,19.70
2018-09-21T04:21:29.273Z,19.70
2018-09-21T04:23:56.694Z,19.80
2018-09-21T04:26:24.157Z,19.80
2018-09-21T04:28:51.716Z,19.70
2018-09-21T04:31:19.107Z,19.60
2018-09-21T04:33:46.526Z,19.60
2018-09-21T04:36:14.085Z,19.60
2018-09-21T04:38:41.482Z,19.50
2018-09-21T04:41:08.908Z,19.50
2018-09-21T04:43:36.384Z,19.50
2018-09-21T04:46:03.839Z,19.50
2018-09-21T04:48:31.303Z,19.50
2018-09-21T04:50:58.801Z,19.50
2018-09-21T04:53:26.335Z,19.50
2018-09-21T04:55:53.872Z,19.40
2018-09-21T04:58:21.436Z,19.30
2018-09-21T05:00:49.238Z,19.20
2018-09-21T05:03:16.641Z,19.30
2018-09-21T05:05:45.400Z,19.30
2018-09-21T05:08:12.923Z,19.40
2018-09-21T05:10:40.382Z,19.40
2018-09-21T05:13:07.929Z,19.20
2018-09-21T05:15:35.526Z,19.30
2018-09-21T05:18:02.961Z,19.40
2018-09-21T05:20:30.932Z,19.40
2018-09-21T05:22:58.317Z,19.40
2018-09-21T05:25:25.877Z,19.30
2018-09-21T05:27:53.429Z,19.30
2018-09-21T05:30:20.885Z,19.30
2018-09-21T05:32:48.378Z,19.30
2018-09-21T05:35:15.958Z,19.20
2018-09-21T05:37:43.379Z,19.10
2018-09-21T05:40:10.986Z,19.20
2018-09-21T05:42:38.489Z,19.10
2018-09-21T05:45:06.062Z,19.20
2018-09-21T05:47:33.521Z,19.30
2018-09-21T05:50:00.924Z,19.20
2018-09-21T05:52:28.439Z,19.10
2018-09-21T05:54:55.982Z,19.10
2018-09-21T05:57:23.373Z,19.10
2018-09-21T05:59:50.809Z,19.20
2018-09-21T06:02:18.195Z,19.20
2018-09-21T06:04:45.641Z,19.40
2018-09-21T06:07:13.019Z,19.30
2018-09-21T06:09:40.504Z,19.30
2018-09-21T06:12:07.905Z,19.40
2018-09-21T06:14:35.395Z,19.40
2018-09-21T06:17:02.840Z,19.40
2018-09-21T06:19:30.381Z,19.50
2018-09-21T06:21:57.783Z,19.50
2018-09-21T06:24:25.207Z,19.70
2018-09-21T06:26:52.585Z,19.70
2018-09-21T06:29:20.016Z,19.60
2018-09-21T06:31:47.402Z,19.70
2018-09-21T06:34:14.817Z,19.70
2018-09-21T06:36:42.213Z,19.80
2018-09-21T06:39:10.935Z,20.00
2018-09-21T06:41:40.415Z,20.30
2018-09-21T06:44:09.053Z,20.40
2018-09-21T06:46:36.558Z,20.40
2018-09-21T06:49:04.132Z,20.40
2018-09-21T06:51:31.647Z,20.40
2018-09-21T06:53:59.085Z,20.40
2018-09-21T06:56:26.556Z,20.50
2018-09-21T06:58:54.072Z,20.50
2018-09-21T07:01:21.473Z,20.70
2018-09-21T07:03:48.973Z,20.70
2018-09-21T07:06:16.449Z,20.70
2018-09-21T07:08:44.007Z,20.80
2018-09-21T07:11:11.556Z,20.80
2018-09-21T07:13:38.951Z,20.90
2018-09-21T07:16:06.416Z,21.00
2018-09-21T07:18:33.877Z,21.00
2018-09-21T07:21:01.321Z,20.90
2018-09-21T07:23:28.715Z,21.00
2018-09-21T07:25:56.333Z,21.00
2018-09-21T07:28:23.791Z,21.10
2018-09-21T07:30:51.222Z,21.20
2018-09-21T07:33:18.563Z,21.30
2018-09-21T07:35:46.236Z,21.40
2018-09-21T07:38:13.743Z,21.50
2018-09-21T07:40:41.157Z,21.50
2018-09-21T07:43:08.696Z,21.50
2018-09-21T07:45:36.103Z,21.70
2018-09-21T07:48:03.608Z,21.80
2018-09-21T07:50:31.126Z,21.80
2018-09-21T07:52:58.521Z,22.00
2018-09-21T07:55:25.984Z,22.10
2018-09-21T07:57:53.626Z,22.30
2018-09-21T08:00:21.080Z,22.20
2018-09-21T08:02:48.557Z,22.30
2018-09-21T08:05:18.375Z,22.40
2018-09-21T08:07:45.742Z,22.30
2018-09-21T08:10:13.157Z,22.40
2018-09-21T08:12:40.998Z,22.40
2018-09-21T08:15:08.529Z,22.50
2018-09-21T08:17:35.991Z,22.60
2018-09-21T08:20:03.496Z,22.70
2018-09-21T08:22:30.960Z,22.70
2018-09-21T08:24:58.543Z,22.80
2018-09-21T08:27:26.086Z,22.90
2018-09-21T08:29:54.151Z,22.80
2018-09-21T08:32:21.573Z,23.00
2018-09-21T08:34:49.055Z,23.10
2018-09-21T08:37:16.601Z,23.30
2018-09-21T08:39:44.048Z,23.50
2018-09-21T08:42:11.647Z,23.60
2018-09-21T08:44:39.053Z,23.60
2018-09-21T08:49:59.565Z,23.80
2018-09-21T08:52:27.061Z,23.90
2018-09-21T08:54:54.663Z,24.20
2018-09-21T08:57:22.173Z,24.70
2018-09-21T08:59:49.752Z,25.10
2018-09-21T09:02:17.154Z,25.40
2018-09-21T09:04:44.618Z,25.70
2018-09-21T09:07:12.109Z,26.10
2018-09-21T09:09:39.593Z,26.30
2018-09-21T09:12:07.072Z,26.20
2018-09-21T09:14:34.580Z,26.20
2018-09-21T09:17:02.120Z,26.00
2018-09-21T09:19:29.653Z,26.20
2018-09-21T09:21:57.135Z,26.20
2018-09-21T09:24:24.732Z,26.30
2018-09-21T09:26:52.211Z,26.30
2018-09-21T09:29:19.725Z,26.50
2018-09-21T09:31:47.230Z,26.50
2018-09-21T09:34:14.676Z,26.30
2018-09-21T09:36:42.134Z,26.40
2018-09-21T09:39:11.590Z,26.50
2018-09-21T09:41:40.930Z,26.60
2018-09-21T09:44:08.879Z,26.60
2018-09-21T09:46:36.404Z,26.60
2018-09-21T09:49:04.203Z,26.60
2018-09-21T09:51:31.548Z,26.50
2018-09-21T09:53:59.079Z,26.30
2018-09-21T09:56:26.551Z,26.30
2018-09-21T09:58:54.210Z,26.30
2018-09-21T10:01:21.648Z,26.50
2018-09-21T10:03:49.207Z,26.60
2018-09-21T10:06:16.704Z,26.60
2018-09-21T10:08:44.160Z,26.60
2018-09-21T10:11:11.618Z,26.60
2018-09-21T10:13:39.130Z,26.60
2018-09-21T10:16:06.547Z,26.60
2018-09-21T10:18:34.023Z,26.40
2018-09-21T10:21:01.449Z,26.40
2018-09-21T10:23:28.869Z,26.60
2018-09-21T10:25:56.332Z,26.70
2018-09-21T10:28:23.883Z,27.20
2018-09-21T10:30:51.261Z,27.00
2018-09-21T10:33:18.864Z,26.80
2018-09-21T10:35:46.265Z,26.70
2018-09-21T10:38:13.737Z,26.60
2018-09-21T10:40:41.222Z,26.50
2018-09-21T10:43:08.699Z,26.50
2018-09-21T10:45:36.143Z,26.20
2018-09-21T10:48:03.583Z,26.10
2018-09-21T10:50:31.013Z,26.00
2018-09-21T10:52:58.345Z,26.00
2018-09-21T10:55:25.799Z,26.00
2018-09-21T10:57:53.264Z,25.90
2018-09-21T11:00:20.859Z,26.10
2018-09-21T11:02:48.258Z,26.30
2018-09-21T11:05:15.725Z,26.70
2018-09-21T11:07:43.099Z,26.90
2018-09-21T11:10:10.625Z,27.20
2018-09-21T11:12:38.104Z,27.50
2018-09-21T11:15:05.683Z,27.60
2018-09-21T11:17:33.134Z,27.50
2018-09-21T11:20:00.590Z,27.40
2018-09-21T11:22:28.059Z,27.30
2018-09-21T11:24:55.526Z,27.40
2018-09-21T11:27:23.124Z,27.30
2018-09-21T11:29:50.572Z,27.40
2018-09-21T11:32:17.990Z,27.20
2018-09-21T11:34:45.568Z,27.10
2018-09-21T11:37:13.025Z,27.00
2018-09-21T11:39:40.434Z,27.10
2018-09-21T11:42:07.847Z,26.90
2018-09-21T11:44:35.482Z,26.90
2018-09-21T11:47:03.013Z,27.20
2018-09-21T11:49:30.423Z,27.40
2018-09-21T11:51:57.876Z,27.50
2018-09-21T11:54:25.474Z,27.40
2018-09-21T11:56:52.880Z,27.40
2018-09-21T11:59:20.315Z,27.40
2018-09-21T12:01:48.005Z,27.10
2018-09-21T12:04:15.547Z,27.10
2018-09-21T12:06:42.988Z,27.00
2018-09-21T12:09:10.387Z,27.00
2018-09-21T12:11:37.900Z,26.90
2018-09-21T12:14:05.416Z,26.90
2018-09-21T12:16:32.839Z,26.90
2018-09-21T12:19:00.289Z,26.70
2018-09-21T12:21:27.752Z,26.50
2018-09-21T12:23:55.211Z,26.50
2018-09-21T12:26:22.847Z,26.60
2018-09-21T12:28:50.203Z,26.70
2018-09-21T12:31:17.792Z,26.40
2018-09-21T12:33:45.183Z,26.40
2018-09-21T12:36:12.604Z,26.40
2018-09-21T12:38:40.043Z,26.40
2018-09-21T12:41:07.419Z,26.40
2018-09-21T12:43:34.852Z,26.30
2018-09-21T12:46:04.515Z,26.20
2018-09-21T12:48:32.121Z,26.20
2018-09-21T12:50:59.757Z,26.10
2018-09-21T12:53:27.105Z,26.10
2018-09-21T12:55:54.646Z,26.20
2018-09-21T12:58:22.192Z,26.20
2018-09-21T13:00:51.197Z,26.10
2018-09-21T13:03:19.424Z,26.20
2018-09-21T13:05:49.213Z,26.10
2018-09-21T13:08:16.648Z,26.10
2018-09-21T13:10:43.979Z,26.00
2018-09-21T13:13:11.403Z,26.10
2018-09-21T13:15:38.815Z,26.10
2018-09-21T13:18:06.198Z,26.40
2018-09-21T13:20:33.551Z,26.20
2018-09-21T13:23:00.956Z,26.20
2018-09-21T13:25:28.473Z,26.20
2018-09-21T13:27:55.963Z,26.10
2018-09-21T13:30:23.364Z,26.20
2018-09-21T13:32:50.677Z,26.20
2018-09-21T13:35:18.115Z,26.20
2018-09-21T13:37:45.574Z,26.20
2018-09-21T13:40:13.038Z,26.10
2018-09-21T13:42:40.517Z,26.20
2018-09-21T13:45:07.961Z,26.30
2018-09-21T13:47:35.429Z,26.20
2018-09-21T13:50:02.890Z,26.30
2018-09-21T13:52:30.223Z,26.40
2018-09-21T13:54:57.644Z,26.40
2018-09-21T13:57:25.137Z,26.20
2018-09-21T13:59:52.566Z,26.00
2018-09-21T14:02:19.919Z,26.00
2018-09-21T14:04:47.346Z,25.90
2018-09-21T14:07:14.868Z,25.80
2018-09-21T14:09:42.239Z,25.60
2018-09-21T14:12:09.625Z,25.10
2018-09-21T14:14:37.054Z,24.80
2018-09-21T14:17:04.481Z,24.70
2018-09-21T14:19:31.962Z,24.50
2018-09-21T14:21:59.402Z,23.90
2018-09-21T14:24:26.772Z,23.60
2018-09-21T14:26:54.153Z,23.20
2018-09-21T14:29:21.573Z,23.20
2018-09-21T14:31:49.057Z,23.00
2018-09-21T14:34:16.449Z,22.40
2018-09-21T14:36:43.815Z,21.60
2018-09-21T14:39:11.648Z,21.00
2018-09-21T14:41:39.196Z,20.40
2018-09-21T14:44:07.007Z,19.90
2018-09-21T14:46:34.493Z,19.40
2018-09-21T14:49:02.067Z,19.10
2018-09-21T14:51:29.516Z,19.00
2018-09-21T14:53:56.964Z,18.70
2018-09-21T14:56:24.526Z,18.20
2018-09-21T14:58:51.988Z,18.20
2018-09-21T15:01:19.366Z,17.80
2018-09-21T15:03:46.800Z,17.50
2018-09-21T15:06:14.154Z,17.30
2018-09-21T15:08:41.675Z,17.20
2018-09-21T15:11:09.238Z,17.20
2018-09-21T15:13:36.690Z,17.20
2018-09-21T15:16:04.354Z,17.00
2018-09-21T15:18:31.884Z,16.90
2018-09-21T15:20:59.574Z,16.90
2018-09-21T15:23:27.170Z,16.60
2018-09-21T15:25:54.721Z,16.40
2018-09-21T15:28:22.211Z,16.20
2018-09-21T15:30:49.661Z,16.10
2018-09-21T15:33:17.247Z,16.10
2018-09-21T15:35:44.669Z,15.80
2018-09-21T15:38:12.134Z,15.60
2018-09-21T15:40:39.607Z,15.40
2018-09-21T15:43:07.318Z,15.40
2018-09-21T15:45:34.647Z,15.40
2018-09-21T15:48:02.107Z,15.40
2018-09-21T15:50:29.518Z,15.30
2018-09-21T15:52:56.930Z,15.40
2018-09-21T15:55:24.618Z,15.50
2018-09-21T15:57:52.473Z,15.50
2018-09-21T16:00:20.078Z,15.50
2018-09-21T16:02:47.519Z,15.50
2018-09-21T16:05:14.972Z,15.60
2018-09-21T16:07:42.429Z,15.70
2018-09-21T16:10:09.949Z,15.60
2018-09-21T16:12:37.400Z,15.70
2018-09-21T16:15:05.038Z,15.80
2018-09-21T16:17:32.467Z,15.80
2018-09-21T16:19:59.907Z,15.70
2018-09-21T16:22:27.437Z,15.70
2018-09-21T16:24:54.880Z,15.90
2018-09-21T16:27:22.415Z,16.00
2018-09-21T16:29:49.863Z,16.20
2018-09-21T16:32:17.253Z,16.10
2018-09-21T16:34:44.680Z,16.00
2018-09-21T16:37:12.066Z,16.20
2018-09-21T16:39:39.546Z,16.30
2018-09-21T16:42:07.114Z,16.20
2018-09-21T16:44:34.564Z,16.20
2018-09-21T16:47:01.996Z,16.20
2018-09-21T16:49:29.319Z,16.10
2018-09-21T16:51:56.824Z,16.10
2018-09-21T16:54:24.295Z,16.10
2018-09-21T16:56:51.730Z,16.10
2018-09-21T16:59:19.184Z,16.00
2018-09-21T17:01:46.638Z,16.00
2018-09-21T17:04:14.199Z,16.00
2018-09-21T17:06:41.633Z,16.00
2018-09-21T17:09:11.403Z,16.00
2018-09-21T17:11:39.025Z,16.00
2018-09-21T17:14:06.497Z,16.00
2018-09-21T17:16:33.931Z,15.90
2018-09-21T17:19:01.479Z,15.90
2018-09-21T17:21:28.916Z,15.90
2018-09-21T17:23:56.331Z,15.90
2018-09-21T17:26:23.776Z,15.80
2018-09-21T17:28:51.199Z,15.80
2018-09-21T17:31:18.861Z,15.80
2018-09-21T17:33:46.479Z,15.80
2018-09-21T17:36:13.929Z,15.80
2018-09-21T17:38:41.514Z,15.60
2018-09-21T17:41:09.083Z,15.70
2018-09-21T17:43:36.507Z,15.70
2018-09-21T17:46:04.118Z,15.70
2018-09-21T17:48:31.979Z,15.60
2018-09-21T17:50:59.628Z,15.60
2018-09-21T17:53:27.217Z,15.70
2018-09-21T17:55:54.616Z,15.60
2018-09-21T17:58:22.064Z,15.70
2018-09-21T18:00:49.739Z,15.60
2018-09-21T18:03:17.536Z,15.60
2018-09-21T18:05:45.006Z,15.60
2018-09-21T18:08:12.644Z,15.80
2018-09-21T18:10:40.148Z,15.70
2018-09-21T18:13:07.568Z,15.70
2018-09-21T18:15:35.014Z,15.70
2018-09-21T18:18:02.350Z,15.70
2018-09-21T18:20:29.780Z,15.60
2018-09-21T18:22:57.232Z,15.80
2018-09-21T18:25:24.708Z,15.80
2018-09-21T18:27:52.121Z,15.80
2018-09-21T18:30:19.666Z,15.80
2018-09-21T18:32:47.121Z,15.70
2018-09-21T18:35:14.641Z,15.70
2018-09-21T18:37:42.108Z,15.70
2018-09-21T18:40:09.589Z,15.80
2018-09-21T18:42:37.155Z,15.80
2018-09-21T18:45:04.553Z,15.70
2018-09-21T18:47:31.999Z,15.80
2018-09-21T18:49:59.554Z,15.70
2018-09-21T18:52:26.945Z,15.80
2018-09-21T18:54:54.484Z,15.90
2018-09-21T18:57:22.009Z,15.80
2018-09-21T18:59:49.425Z,15.90
2018-09-21T19:02:16.869Z,15.80
2018-09-21T19:04:44.344Z,15.70
2018-09-21T19:07:17.538Z,15.80
2018-09-21T19:09:45.007Z,16.00
2018-09-21T19:12:12.625Z,15.90
2018-09-21T19:14:40.199Z,16.00
2018-09-21T19:17:07.627Z,16.00
2018-09-21T19:19:35.025Z,15.90
2018-09-21T19:22:02.836Z,15.90
2018-09-21T19:24:30.270Z,15.90
2018-09-21T19:26:57.790Z,16.00
2018-09-21T19:29:25.341Z,16.10
2018-09-21T19:31:52.806Z,16.00
2018-09-21T19:34:20.262Z,16.10
2018-09-21T19:36:47.782Z,16.10
2018-09-21T19:39:15.281Z,16.10
2018-09-21T19:41:45.693Z,16.10
2018-09-21T19:44:13.261Z,16.00
2018-09-21T19:46:40.789Z,16.10
2018-09-21T19:49:08.259Z,16.10
2018-09-21T19:51:35.668Z,16.00
2018-09-21T19:54:04.939Z,16.10
2018-09-21T19:56:50.669Z,16.20
2018-09-21T19:59:18.231Z,16.20
2018-09-21T20:01:45.594Z,16.30
2018-09-21T20:04:13.050Z,16.10
2018-09-21T20:06:40.417Z,16.10
2018-09-21T20:09:09.429Z,15.90
2018-09-21T20:11:37.914Z,15.80
2018-09-21T20:14:05.549Z,15.80
2018-09-21T20:16:33.012Z,15.90
2018-09-21T20:19:00.530Z,15.90
2018-09-21T20:21:28.201Z,15.80
2018-09-21T20:23:55.593Z,15.80
2018-09-21T20:26:23.113Z,15.90
2018-09-21T20:28:50.656Z,15.80
2018-09-21T20:31:23.945Z,15.70
2018-09-21T20:33:51.410Z,15.70
2018-09-21T20:36:18.894Z,15.80
2018-09-21T20:38:47.334Z,15.70
2018-09-21T20:41:14.918Z,15.70
2018-09-21T20:43:42.399Z,15.60
2018-09-21T20:46:09.826Z,15.50
2018-09-21T20:48:37.237Z,15.50
2018-09-21T20:51:04.686Z,15.60
2018-09-21T20:53:32.189Z,15.60
2018-09-21T20:55:59.785Z,15.60
2018-09-21T20:58:27.162Z,15.60
2018-09-21T21:00:54.625Z,15.60
2018-09-21T21:03:22.117Z,15.50
2018-09-21T21:07:06.771Z,15.40
2018-09-21T21:09:34.466Z,15.60
2018-09-21T21:12:02.151Z,15.60
2018-09-21T21:14:29.797Z,15.60
2018-09-21T21:17:01.125Z,15.80
2018-09-21T21:19:28.994Z,15.70
2018-09-21T21:21:56.481Z,15.50
2018-09-21T21:24:24.062Z,15.70
2018-09-21T21:26:51.679Z,15.80
2018-09-21T21:29:19.370Z,16.20
2018-09-21T21:31:46.991Z,16.00
2018-09-21T21:34:14.469Z,16.00
2018-09-21T21:36:41.932Z,16.10
2018-09-21T21:39:09.974Z,15.90
2018-09-21T21:41:37.664Z,16.00
2018-09-21T21:44:06.524Z,16.10
2018-09-21T21:46:33.987Z,15.70
2018-09-21T21:49:01.560Z,16.00
2018-09-21T21:51:29.241Z,15.90
2018-09-21T21:53:56.817Z,15.70
2018-09-21T21:56:24.203Z,15.60
2018-09-21T21:58:51.718Z,16.00
2018-09-21T22:08:24.033Z,15.80
2018-09-21T22:10:51.632Z,15.60
2018-09-21T22:13:24.915Z,15.40
2018-09-21T22:15:52.406Z,15.90
2018-09-21T22:18:20.047Z,16.10
2018-09-21T22:20:48.292Z,16.10
2018-09-21T22:23:15.762Z,16.20
2018-09-21T22:25:43.241Z,16.20
2018-09-21T22:28:10.667Z,16.20
2018-09-21T22:30:38.211Z,16.10
2018-09-21T22:33:05.672Z,16.00
2018-09-21T22:35:33.141Z,16.00
2018-09-21T22:38:00.608Z,16.00
2018-09-21T22:40:28.085Z,16.10
2018-09-21T22:42:56.832Z,16.00
2018-09-21T22:45:24.320Z,15.80
2018-09-21T22:47:52.264Z,15.80
2018-09-21T22:50:19.744Z,15.70
2018-09-21T22:52:47.304Z,15.80
2018-09-21T22:55:14.730Z,15.70
2018-09-21T22:57:42.161Z,15.70
2018-09-21T23:00:09.831Z,15.60
2018-09-21T23:02:37.376Z,15.90
2018-09-21T23:05:04.833Z,15.90
2018-09-21T23:07:32.282Z,16.20
2018-09-21T23:09:59.794Z,16.00
2018-09-21T23:12:27.302Z,16.10
2018-09-21T23:14:55.045Z,15.80
2018-09-21T23:17:22.551Z,15.70
2018-09-21T23:22:32.462Z,15.70
2018-09-21T23:25:00.123Z,15.80
2018-09-21T23:27:27.628Z,16.00
2018-09-21T23:29:55.899Z,15.90
2018-09-21T23:32:23.347Z,15.90
2018-09-21T23:34:50.856Z,15.90
2018-09-21T23:37:18.294Z,15.90
2018-09-21T23:39:46.053Z,15.80
2018-09-21T23:42:13.884Z,15.60
2018-09-21T23:44:41.364Z,15.60
2018-09-21T23:47:09.209Z,15.60
2018-09-21T23:49:36.725Z,15.60
2018-09-21T23:52:04.387Z,15.70
2018-09-21T23:54:31.957Z,15.50
2018-09-21T23:56:59.743Z,15.60
2018-09-21T23:59:27.353Z,15.60
